Time;durP1;ratioP1;P1;durP2;ratioP2;P2;SDS_P1;SDS_P2;PMS_P1;PMS_P2;Temp;Humidity;BMP_temperature;BMP_pressure;BME280_temperature;BME280_humidity;BME280_pressure;Samples;Min_cycle;Max_cycle;Signal;HPM_P1;HPM_P2
2022/04/06 00:00:42;;;;;;;4.88;1.83;;;;;;;;;;4916857;29;20036;-67
2022/04/06 00:03:08;;;;;;;7.32;2.15;;;;;;;;;;4916922;29;20040;-67
2022/04/06 00:05:35;;;;;;;5.43;1.65;;;;;;;;;;4916870;29;20521;-67
2022/04/06 00:08:01;;;;;;;10.32;2.50;;;;;;;;;;4916876;29;20048;-67
2022/04/06 00:10:28;;;;;;;8.25;2.35;;;;;;;;;;4916234;29;20511;-67
2022/04/06 00:12:55;;;;;;;9.95;2.70;;;;;;;;;;4916758;29;20107;-67
2022/04/06 00:15:21;;;;;;;9.68;2.15;;;;;;;;;;4916610;29;20103;-67
2022/04/06 00:17:47;;;;;;;8.32;2.30;;;;;;;;;;4916729;29;20035;-67
2022/04/06 00:20:14;;;;;;;8.90;1.98;;;;;;;;;;4916435;29;20066;-67
2022/04/06 00:22:41;;;;;;;6.78;2.20;;;;;;;;;;4916508;29;20079;-67
2022/04/06 00:25:07;;;;;;;8.13;2.17;;;;;;;;;;4916300;29;20072;-67
2022/04/06 00:27:34;;;;;;;15.65;2.40;;;;;;;;;;4916218;29;20047;-67
2022/04/06 00:30:00;;;;;;;6.05;2.15;;;;;;;;;;4916695;29;20055;-67
2022/04/06 00:32:26;;;;;;;8.52;2.40;;;;;;;;;;4915437;29;20028;-67
2022/04/06 00:37:37;;;;;;;7.28;2.35;;;;;;;;;;4916298;29;20114;-67
2022/04/06 00:40:04;;;;;;;6.18;2.00;;;;;;;;;;4916074;29;20038;-67
2022/04/06 00:42:30;;;;;;;3.92;1.70;;;;;;;;;;4915691;29;20043;-67
2022/04/06 00:44:56;;;;;;;7.30;2.05;;;;;;;;;;4916355;29;20032;-67
2022/04/06 00:47:22;;;;;;;4.82;1.90;;;;;;;;;;4916131;29;20039;-67
2022/04/06 00:49:49;;;;;;;9.32;1.90;;;;;;;;;;4926935;29;20031;-67
2022/04/06 00:52:15;;;;;;;7.40;1.73;;;;;;;;;;4918232;29;20035;-67
2022/04/06 00:54:41;;;;;;;6.97;1.73;;;;;;;;;;4915480;29;20021;-67
2022/04/06 00:57:08;;;;;;;8.35;1.63;;;;;;;;;;4915865;29;20080;-67
2022/04/06 00:59:34;;;;;;;11.35;2.03;;;;;;;;;;4915001;29;20043;-67
2022/04/06 01:02:00;;;;;;;9.88;1.65;;;;;;;;;;4916153;29;20036;-67
2022/04/06 01:04:27;;;;;;;7.60;1.60;;;;;;;;;;4915451;29;20169;-67
2022/04/06 01:06:54;;;;;;;5.05;1.90;;;;;;;;;;4916007;29;20028;-67
2022/04/06 01:09:21;;;;;;;3.53;1.42;;;;;;;;;;4915507;29;20028;-67
2022/04/06 01:11:48;;;;;;;9.73;1.63;;;;;;;;;;4915968;29;20428;-67
2022/04/06 01:14:15;;;;;;;8.82;1.42;;;;;;;;;;4915646;29;20035;-67
2022/04/06 01:16:41;;;;;;;4.88;1.73;;;;;;;;;;4915634;29;20028;-67
2022/04/06 01:19:08;;;;;;;3.65;1.45;;;;;;;;;;4915763;29;20028;-67
2022/04/06 01:21:34;;;;;;;3.95;1.40;;;;;;;;;;4915290;29;20090;-67
2022/04/06 01:24:00;;;;;;;3.60;1.48;;;;;;;;;;4915621;29;20030;-67
2022/04/06 01:26:26;;;;;;;5.80;1.40;;;;;;;;;;4915158;29;20032;-67
2022/04/06 01:28:52;;;;;;;3.65;1.30;;;;;;;;;;4915732;29;20032;-67
2022/04/06 01:31:18;;;;;;;2.95;1.27;;;;;;;;;;4915748;29;20103;-67
2022/04/06 01:33:45;;;;;;;1.63;0.75;;;;;;;;;;4915468;29;20064;-67
2022/04/06 01:36:11;;;;;;;3.38;0.90;;;;;;;;;;4915804;29;20028;-67
2022/04/06 01:38:37;;;;;;;2.72;0.90;;;;;;;;;;4914851;29;20131;-67
2022/04/06 01:41:03;;;;;;;3.60;2.10;;;;;;;;;;4915509;29;20031;-67
2022/04/06 01:43:29;;;;;;;3.80;1.10;;;;;;;;;;4916376;29;20032;-67
2022/04/06 01:45:55;;;;;;;4.18;1.92;;;;;;;;;;4919161;29;20472;-67
2022/04/06 01:48:21;;;;;;;5.63;0.95;;;;;;;;;;4919163;29;20562;-67
2022/04/06 01:53:32;;;;;;;2.35;1.08;;;;;;;;;;4918450;29;20123;-67
2022/04/06 01:55:59;;;;;;;6.70;1.10;;;;;;;;;;4919381;29;20035;-67
2022/04/06 01:58:25;;;;;;;2.50;1.08;;;;;;;;;;4919092;29;20111;-67
2022/04/06 02:00:52;;;;;;;4.60;1.20;;;;;;;;;;4903870;29;20032;-67
2022/04/06 02:03:19;;;;;;;2.67;1.00;;;;;;;;;;4899104;29;20488;-67
2022/04/06 02:05:46;;;;;;;4.50;1.13;;;;;;;;;;4910329;29;20056;-67
2022/04/06 02:08:12;;;;;;;8.55;1.70;;;;;;;;;;4918522;29;20396;-67
2022/04/06 02:10:39;;;;;;;2.35;1.25;;;;;;;;;;4918447;29;20074;-67
2022/04/06 02:13:05;;;;;;;7.53;1.60;;;;;;;;;;4918886;29;20024;-67
2022/04/06 02:15:32;;;;;;;2.63;1.50;;;;;;;;;;4918757;29;20407;-67
2022/04/06 02:17:58;;;;;;;1.85;1.40;;;;;;;;;;4919013;29;20043;-67
2022/04/06 02:20:24;;;;;;;6.07;1.40;;;;;;;;;;4918934;29;20028;-67
2022/04/06 02:22:50;;;;;;;4.80;1.60;;;;;;;;;;4917785;29;20059;-67
2022/04/06 02:25:16;;;;;;;6.50;1.70;;;;;;;;;;4918921;29;20055;-66
2022/04/06 02:27:47;;;;;;;2.25;1.27;;;;;;;;;;4918703;29;20028;-66
2022/04/06 02:30:13;;;;;;;7.10;1.50;;;;;;;;;;4918509;29;20056;-66
2022/04/06 02:32:40;;;;;;;4.53;1.60;;;;;;;;;;4918273;29;20395;-66
2022/04/06 02:35:06;;;;;;;5.88;1.42;;;;;;;;;;4932745;29;20404;-66
2022/04/06 02:37:32;;;;;;;3.42;1.42;;;;;;;;;;4918152;29;20080;-66
2022/04/06 02:39:58;;;;;;;1.40;0.93;;;;;;;;;;4918404;29;20064;-66
2022/04/06 02:42:24;;;;;;;2.08;1.40;;;;;;;;;;4918496;29;20150;-66
2022/04/06 02:44:51;;;;;;;5.28;1.55;;;;;;;;;;4918188;29;20094;-67
2022/04/06 02:47:17;;;;;;;2.00;1.27;;;;;;;;;;4918508;29;20031;-67
2022/04/06 02:49:43;;;;;;;4.60;1.63;;;;;;;;;;4924765;29;20027;-67
2022/04/06 02:52:09;;;;;;;3.70;1.45;;;;;;;;;;4917987;29;20028;-67
2022/04/06 02:54:35;;;;;;;1.90;1.20;;;;;;;;;;4917931;29;20028;-67
2022/04/06 02:57:01;;;;;;;4.95;1.02;;;;;;;;;;4917661;29;20028;-67
2022/04/06 02:59:28;;;;;;;2.22;1.10;;;;;;;;;;4918241;29;20043;-67
2022/04/06 03:01:54;;;;;;;1.63;0.80;;;;;;;;;;4917774;29;20176;-67
2022/04/06 03:04:20;;;;;;;5.93;1.33;;;;;;;;;;4917550;29;20035;-67
2022/04/06 03:06:46;;;;;;;3.05;1.02;;;;;;;;;;4917917;29;20052;-67
2022/04/06 03:09:12;;;;;;;5.18;1.45;;;;;;;;;;4917940;29;20404;-67
2022/04/06 03:11:38;;;;;;;3.83;0.88;;;;;;;;;;4917747;29;20070;-67
2022/04/06 03:14:05;;;;;;;3.95;1.20;;;;;;;;;;4917945;29;20091;-67
2022/04/06 03:16:31;;;;;;;4.35;0.95;;;;;;;;;;4917981;29;20040;-67
2022/04/06 03:18:57;;;;;;;3.45;1.05;;;;;;;;;;4917113;29;20024;-67
2022/04/06 03:21:24;;;;;;;2.92;1.00;;;;;;;;;;4917745;29;20076;-67
2022/04/06 03:23:50;;;;;;;3.67;1.42;;;;;;;;;;4917219;29;20556;-67
2022/04/06 03:26:16;;;;;;;3.40;0.90;;;;;;;;;;4917799;29;20107;-67
2022/04/06 03:28:42;;;;;;;4.53;0.82;;;;;;;;;;4917415;29;20508;-67
2022/04/06 03:31:08;;;;;;;5.95;1.23;;;;;;;;;;4917478;29;20024;-67
2022/04/06 03:33:35;;;;;;;2.47;1.10;;;;;;;;;;4917212;29;20396;-67
2022/04/06 03:36:02;;;;;;;4.70;1.00;;;;;;;;;;4917300;29;20080;-67
2022/04/06 03:38:28;;;;;;;3.63;0.90;;;;;;;;;;4917378;29;20035;-67
2022/04/06 03:40:54;;;;;;;4.95;1.02;;;;;;;;;;4917246;29;20031;-67
2022/04/06 03:43:21;;;;;;;2.60;0.90;;;;;;;;;;4917306;29;20024;-67
2022/04/06 03:45:48;;;;;;;2.90;0.95;;;;;;;;;;4916776;29;20115;-67
2022/04/06 03:48:14;;;;;;;4.50;1.00;;;;;;;;;;4916875;29;20036;-67
2022/04/06 03:50:40;;;;;;;4.70;1.13;;;;;;;;;;4916995;29;20024;-67
2022/04/06 03:53:06;;;;;;;9.30;1.50;;;;;;;;;;4900137;29;20400;-67
2022/04/06 03:55:32;;;;;;;4.07;1.23;;;;;;;;;;4917280;29;20095;-67
2022/04/06 03:57:58;;;;;;;8.45;1.13;;;;;;;;;;4916805;29;20032;-67
2022/04/06 04:00:24;;;;;;;4.68;1.10;;;;;;;;;;4916986;29;20036;-67
2022/04/06 04:02:50;;;;;;;7.18;1.20;;;;;;;;;;4916593;29;20092;-67
2022/04/06 04:05:17;;;;;;;3.75;1.13;;;;;;;;;;4917102;29;20551;-67
2022/04/06 04:07:46;;;;;;;5.55;1.70;;;;;;;;;;4915540;29;20020;-67
2022/04/06 04:10:14;;;;;;;4.22;1.15;;;;;;;;;;4901762;29;20092;-67
2022/04/06 04:12:40;;;;;;;5.20;1.17;;;;;;;;;;4916755;29;20492;-67
2022/04/06 04:15:07;;;;;;;4.25;1.42;;;;;;;;;;4916647;29;20108;-67
2022/04/06 04:17:33;;;;;;;5.25;0.85;;;;;;;;;;4913233;29;20021;-67
2022/04/06 04:19:59;;;;;;;4.55;1.23;;;;;;;;;;4914476;29;20174;-67
2022/04/06 04:22:25;;;;;;;2.42;0.80;;;;;;;;;;4915607;29;20056;-67
2022/04/06 04:24:51;;;;;;;4.30;1.20;;;;;;;;;;4915190;29;20059;-67
2022/04/06 04:27:17;;;;;;;9.18;1.27;;;;;;;;;;4916062;29;20460;-67
2022/04/06 04:29:43;;;;;;;2.05;0.95;;;;;;;;;;4915712;29;20040;-67
2022/04/06 04:32:14;;;;;;;2.55;1.25;;;;;;;;;;4914860;29;20518;-67
2022/04/06 04:34:41;;;;;;;5.68;1.10;;;;;;;;;;4914460;29;20571;-67
2022/04/06 04:37:07;;;;;;;5.90;1.13;;;;;;;;;;4913599;29;20060;-67
2022/04/06 04:39:33;;;;;;;5.57;1.00;;;;;;;;;;4929355;29;20488;-67
2022/04/06 04:41:59;;;;;;;6.03;1.08;;;;;;;;;;4913662;29;20455;-67
2022/04/06 04:44:25;;;;;;;6.32;1.20;;;;;;;;;;4914780;29;20058;-67
2022/04/06 04:46:52;;;;;;;3.13;1.23;;;;;;;;;;4913598;29;20413;-67
2022/04/06 04:49:18;;;;;;;2.28;1.15;;;;;;;;;;4914253;29;20039;-67
2022/04/06 04:51:44;;;;;;;2.03;0.93;;;;;;;;;;4913824;29;20028;-67
2022/04/06 04:54:11;;;;;;;6.65;1.30;;;;;;;;;;4908125;29;20066;-67
2022/04/06 04:56:40;;;;;;;5.80;1.15;;;;;;;;;;4915430;29;20384;-66
2022/04/06 04:59:06;;;;;;;5.53;1.20;;;;;;;;;;4913181;29;20155;-66
2022/04/06 05:01:32;;;;;;;4.63;1.02;;;;;;;;;;4913791;29;20036;-66
2022/04/06 05:03:58;;;;;;;2.65;1.15;;;;;;;;;;4913782;29;20047;-66
2022/04/06 05:06:24;;;;;;;3.38;1.55;;;;;;;;;;4913663;29;20032;-66
2022/04/06 05:08:51;;;;;;;4.88;1.17;;;;;;;;;;4914101;29;20028;-66
2022/04/06 05:11:17;;;;;;;4.88;2.00;;;;;;;;;;4920499;29;20036;-66
2022/04/06 05:13:43;;;;;;;2.08;1.17;;;;;;;;;;4913885;29;20046;-67
2022/04/06 05:16:09;;;;;;;6.60;1.48;;;;;;;;;;4914014;29;20496;-67
2022/04/06 05:18:35;;;;;;;6.80;1.30;;;;;;;;;;4912027;29;20063;-67
2022/04/06 05:21:02;;;;;;;4.50;1.20;;;;;;;;;;4914406;29;20043;-67
2022/04/06 05:23:28;;;;;;;7.70;2.35;;;;;;;;;;4914982;29;20028;-67
2022/04/06 05:25:54;;;;;;;9.00;1.50;;;;;;;;;;4919091;29;20032;-68
2022/04/06 05:28:20;;;;;;;5.45;1.27;;;;;;;;;;4914157;29;20043;-68
2022/04/06 05:30:46;;;;;;;5.22;1.20;;;;;;;;;;4912156;29;20024;-68
2022/04/06 05:33:12;;;;;;;7.82;1.40;;;;;;;;;;4914810;29;20020;-68
2022/04/06 05:35:38;;;;;;;3.85;1.05;;;;;;;;;;4914585;29;20501;-68
2022/04/06 05:38:04;;;;;;;1.77;0.98;;;;;;;;;;4916733;29;20028;-68
2022/04/06 05:40:30;;;;;;;6.65;1.42;;;;;;;;;;4915240;29;20012;-67
2022/04/06 05:42:57;;;;;;;5.57;1.50;;;;;;;;;;4917476;29;20059;-67
2022/04/06 05:45:23;;;;;;;6.82;1.52;;;;;;;;;;4915673;29;20036;-67
2022/04/06 05:47:50;;;;;;;2.95;1.55;;;;;;;;;;4915658;29;20071;-67
2022/04/06 05:50:16;;;;;;;3.33;1.77;;;;;;;;;;4913683;29;20027;-67
2022/04/06 05:52:42;;;;;;;3.78;0.90;;;;;;;;;;4917419;29;20054;-67
2022/04/06 05:55:09;;;;;;;3.00;0.95;;;;;;;;;;4898999;29;20083;-67
2022/04/06 05:57:35;;;;;;;8.55;1.20;;;;;;;;;;4918418;29;20032;-67
2022/04/06 06:00:01;;;;;;;8.52;1.15;;;;;;;;;;4915862;29;20110;-67
2022/04/06 06:02:37;;;;;;;6.25;1.13;;;;;;;;;;4928392;29;20451;-67
2022/04/06 06:05:03;;;;;;;7.13;1.20;;;;;;;;;;4917525;29;20020;-67
2022/04/06 06:07:29;;;;;;;4.93;1.30;;;;;;;;;;4916529;29;20040;-68
2022/04/06 06:09:56;;;;;;;8.60;1.20;;;;;;;;;;4913581;29;20090;-67
2022/04/06 06:12:23;;;;;;;3.45;1.23;;;;;;;;;;4914572;29;20032;-68
2022/04/06 06:14:49;;;;;;;8.40;1.10;;;;;;;;;;4915099;29;20516;-68
2022/04/06 06:17:15;;;;;;;4.32;1.23;;;;;;;;;;4913931;29;20020;-68
2022/04/06 06:19:41;;;;;;;12.95;1.33;;;;;;;;;;4905674;29;20036;-68
2022/04/06 06:22:07;;;;;;;7.88;1.20;;;;;;;;;;4916291;29;20056;-68
2022/04/06 06:24:34;;;;;;;5.32;1.13;;;;;;;;;;4913190;29;20057;-68
2022/04/06 06:27:00;;;;;;;3.53;1.17;;;;;;;;;;4914853;29;20032;-68
2022/04/06 06:29:26;;;;;;;7.15;1.50;;;;;;;;;;4917294;29;20050;-68
2022/04/06 06:31:52;;;;;;;13.30;1.73;;;;;;;;;;4917489;29;20758;-68
2022/04/06 06:34:18;;;;;;;8.98;1.73;;;;;;;;;;4904120;29;20512;-68
2022/04/06 06:36:44;;;;;;;4.38;1.38;;;;;;;;;;4916074;29;20123;-68
2022/04/06 06:39:10;;;;;;;7.18;1.67;;;;;;;;;;4917589;29;20047;-68
2022/04/06 06:41:36;;;;;;;8.20;1.48;;;;;;;;;;4915250;29;20407;-68
2022/04/06 06:44:03;;;;;;;6.30;1.55;;;;;;;;;;4920514;29;20028;-67
2022/04/06 06:46:32;;;;;;;9.50;1.38;;;;;;;;;;4914088;29;20039;-67
2022/04/06 06:49:04;;;;;;;6.75;1.60;;;;;;;;;;4911633;29;20043;-67
2022/04/06 06:51:31;;;;;;;7.90;1.48;;;;;;;;;;4918913;29;20171;-67
2022/04/06 06:53:58;;;;;;;3.67;1.40;;;;;;;;;;4917872;29;20039;-67
2022/04/06 06:56:24;;;;;;;6.13;1.17;;;;;;;;;;4917038;29;20224;-67
2022/04/06 06:58:50;;;;;;;3.17;1.30;;;;;;;;;;4918545;29;20993;-67
2022/04/06 07:01:16;;;;;;;7.20;1.50;;;;;;;;;;4917176;29;20028;-67
2022/04/06 07:03:43;;;;;;;9.27;1.35;;;;;;;;;;4919272;29;20039;-67
2022/04/06 07:06:09;;;;;;;9.95;1.77;;;;;;;;;;4917974;29;20040;-67
2022/04/06 07:08:35;;;;;;;3.28;1.65;;;;;;;;;;4921276;29;20035;-67
2022/04/06 07:11:01;;;;;;;10.50;3.63;;;;;;;;;;4916950;29;20131;-67
2022/04/06 07:13:29;;;;;;;9.82;2.40;;;;;;;;;;4917342;29;20029;-67
2022/04/06 07:15:55;;;;;;;8.55;1.38;;;;;;;;;;4917294;29;21162;-67
2022/04/06 07:18:22;;;;;;;11.82;1.50;;;;;;;;;;4918830;29;20070;-67
2022/04/06 07:20:49;;;;;;;4.82;1.42;;;;;;;;;;4915565;29;20024;-67
2022/04/06 07:23:15;;;;;;;7.93;1.20;;;;;;;;;;4916982;29;20055;-67
2022/04/06 07:25:41;;;;;;;3.53;1.10;;;;;;;;;;4922796;29;20113;-67
2022/04/06 07:28:07;;;;;;;6.18;1.15;;;;;;;;;;4921217;29;20082;-67
2022/04/06 07:30:34;;;;;;;4.00;1.05;;;;;;;;;;4914758;29;20048;-67
2022/04/06 07:33:00;;;;;;;12.00;1.70;;;;;;;;;;4916551;29;20024;-67
2022/04/06 07:35:27;;;;;;;9.93;1.23;;;;;;;;;;4914425;29;20047;-67
2022/04/06 07:37:53;;;;;;;8.02;1.35;;;;;;;;;;4915272;29;20415;-67
2022/04/06 07:40:21;;;;;;;5.93;1.50;;;;;;;;;;4915349;29;20067;-67
2022/04/06 07:42:48;;;;;;;9.25;1.45;;;;;;;;;;4912565;29;20087;-67
2022/04/06 07:45:16;;;;;;;5.85;1.20;;;;;;;;;;4915484;29;20036;-67
2022/04/06 07:47:44;;;;;;;4.78;1.00;;;;;;;;;;4914633;29;20043;-67
2022/04/06 07:50:10;;;;;;;6.18;1.42;;;;;;;;;;4910445;29;20025;-67
2022/04/06 07:52:37;;;;;;;8.20;1.83;;;;;;;;;;4916467;29;20088;-67
2022/04/06 07:55:06;;;;;;;8.02;1.33;;;;;;;;;;4915359;29;20028;-67
2022/04/06 07:57:33;;;;;;;9.07;1.73;;;;;;;;;;4915604;29;20032;-67
2022/04/06 08:00:01;;;;;;;8.98;1.40;;;;;;;;;;4915553;29;20032;-67
2022/04/06 08:02:27;;;;;;;3.65;1.48;;;;;;;;;;4916866;29;20032;-67
2022/04/06 08:04:53;;;;;;;6.60;1.65;;;;;;;;;;4916626;29;20044;-67
2022/04/06 08:07:19;;;;;;;7.85;1.73;;;;;;;;;;4918582;29;20102;-67
2022/04/06 08:09:46;;;;;;;5.88;1.52;;;;;;;;;;4918560;29;20036;-67
2022/04/06 08:12:12;;;;;;;9.77;1.55;;;;;;;;;;4919553;29;20431;-67
2022/04/06 08:14:38;;;;;;;5.35;1.60;;;;;;;;;;4916544;29;20055;-67
2022/04/06 08:17:04;;;;;;;5.10;1.40;;;;;;;;;;4914290;29;20040;-67
2022/04/06 08:19:30;;;;;;;7.15;2.40;;;;;;;;;;4921068;29;20032;-67
2022/04/06 08:21:57;;;;;;;7.28;2.65;;;;;;;;;;4914732;29;20043;-67
2022/04/06 08:24:23;;;;;;;6.38;1.50;;;;;;;;;;4909786;29;20085;-67
2022/04/06 08:26:49;;;;;;;9.75;1.50;;;;;;;;;;4911641;29;20439;-67
2022/04/06 08:29:15;;;;;;;7.45;1.20;;;;;;;;;;4908228;29;20032;-67
2022/04/06 08:31:42;;;;;;;3.95;1.17;;;;;;;;;;4914396;29;20511;-67
2022/04/06 08:34:08;;;;;;;9.13;1.40;;;;;;;;;;4914609;29;20071;-67
2022/04/06 08:36:34;;;;;;;4.22;2.03;;;;;;;;;;4915723;29;20384;-67
2022/04/06 08:39:01;;;;;;;6.70;2.10;;;;;;;;;;4910965;29;20039;-67
2022/04/06 08:41:28;;;;;;;6.18;1.30;;;;;;;;;;4913852;29;20032;-67
2022/04/06 08:43:55;;;;;;;5.75;1.80;;;;;;;;;;4915661;29;20028;-67
2022/04/06 08:46:21;;;;;;;3.50;2.47;;;;;;;;;;4913623;29;20579;-67
2022/04/06 08:48:48;;;;;;;6.70;2.65;;;;;;;;;;4911299;29;20524;-67
2022/04/06 08:51:15;;;;;;;7.50;1.75;;;;;;;;;;4907872;29;20028;-67
2022/04/06 08:53:41;;;;;;;5.65;1.45;;;;;;;;;;4914561;29;20389;-67
2022/04/06 08:56:08;;;;;;;7.50;1.80;;;;;;;;;;4915464;29;20111;-67
2022/04/06 08:58:34;;;;;;;6.38;1.80;;;;;;;;;;4915306;29;20032;-67
2022/04/06 09:01:01;;;;;;;5.70;1.63;;;;;;;;;;4912237;29;20520;-67
2022/04/06 09:03:27;;;;;;;7.30;2.03;;;;;;;;;;4918367;29;20024;-67
2022/04/06 09:06:03;;;;;;;6.75;1.58;;;;;;;;;;4914801;29;20038;-67
2022/04/06 09:08:40;;;;;;;8.13;1.80;;;;;;;;;;4914769;29;20579;-67
2022/04/06 09:11:16;;;;;;;4.72;1.55;;;;;;;;;;4912634;29;20028;-67
2022/04/06 09:13:43;;;;;;;9.40;2.03;;;;;;;;;;4902492;29;20124;-67
2022/04/06 09:16:10;;;;;;;9.02;1.67;;;;;;;;;;4917380;29;20496;-67
2022/04/06 09:18:41;;;;;;;9.65;1.80;;;;;;;;;;4922972;29;20024;-65
2022/04/06 09:21:09;;;;;;;11.75;1.75;;;;;;;;;;4912207;29;20096;-64
2022/04/06 09:23:35;;;;;;;5.45;1.90;;;;;;;;;;4897252;29;20028;-64
2022/04/06 09:26:05;;;;;;;8.48;1.55;;;;;;;;;;4897037;29;20040;-64
2022/04/06 09:28:31;;;;;;;15.32;3.47;;;;;;;;;;4893552;29;20095;-64
2022/04/06 09:30:57;;;;;;;7.07;1.67;;;;;;;;;;4894123;29;20404;-64
2022/04/06 09:33:23;;;;;;;7.72;1.60;;;;;;;;;;4901773;29;20060;-64
2022/04/06 09:35:50;;;;;;;9.98;1.67;;;;;;;;;;4896071;29;20117;-64
2022/04/06 09:38:25;;;;;;;4.22;1.40;;;;;;;;;;4896055;29;20523;-64
2022/04/06 09:41:06;;;;;;;12.90;2.47;;;;;;;;;;4897863;29;20091;-64
2022/04/06 09:43:33;;;;;;;5.30;1.35;;;;;;;;;;4897062;29;20025;-64
2022/04/06 09:49:03;;;;;;;11.05;2.38;;;;;;;;;;4899119;29;20405;-64
2022/04/06 09:51:29;;;;;;;7.45;1.38;;;;;;;;;;4898809;29;20059;-64
2022/04/06 09:53:56;;;;;;;6.88;2.08;;;;;;;;;;4904867;29;20036;-64
2022/04/06 09:56:22;;;;;;;6.82;1.30;;;;;;;;;;4900503;29;20032;-65
2022/04/06 09:58:49;;;;;;;6.43;1.90;;;;;;;;;;4900822;29;20044;-65
2022/04/06 10:01:16;;;;;;;7.90;1.50;;;;;;;;;;4899564;29;20032;-65
2022/04/06 10:03:51;;;;;;;13.00;1.80;;;;;;;;;;4895262;29;20048;-65
2022/04/06 10:06:17;;;;;;;14.05;2.13;;;;;;;;;;4901554;29;20020;-65
2022/04/06 10:08:44;;;;;;;13.93;2.17;;;;;;;;;;4898720;29;20071;-65
2022/04/06 10:11:11;;;;;;;11.07;1.60;;;;;;;;;;4895992;29;20033;-65
2022/04/06 10:13:38;;;;;;;8.95;2.08;;;;;;;;;;4900158;29;20032;-65
2022/04/06 10:16:10;;;;;;;7.20;1.83;;;;;;;;;;4900191;29;20063;-65
2022/04/06 10:18:37;;;;;;;7.80;1.88;;;;;;;;;;4901986;29;20040;-65
2022/04/06 10:21:10;;;;;;;13.35;2.60;;;;;;;;;;4897590;29;20032;-65
2022/04/06 10:23:37;;;;;;;4.00;1.73;;;;;;;;;;4908267;29;20040;-65
2022/04/06 10:26:19;;;;;;;16.25;2.13;;;;;;;;;;4897451;29;20041;-65
2022/04/06 10:28:48;;;;;;;13.30;2.00;;;;;;;;;;4895816;29;20399;-65
2022/04/06 10:31:18;;;;;;;10.18;2.05;;;;;;;;;;4896933;29;20033;-65
2022/04/06 10:33:47;;;;;;;9.70;2.00;;;;;;;;;;4898194;29;20071;-65
2022/04/06 10:36:19;;;;;;;5.50;1.85;;;;;;;;;;4901670;29;20032;-65
2022/04/06 10:39:04;;;;;;;12.45;1.85;;;;;;;;;;4897340;29;21464;-65
2022/04/06 10:41:31;;;;;;;16.02;5.93;;;;;;;;;;4895982;29;20032;-65
2022/04/06 10:43:57;;;;;;;13.93;4.43;;;;;;;;;;4898560;29;20021;-64
2022/04/06 10:46:42;;;;;;;10.13;2.45;;;;;;;;;;4898183;29;20032;-64
2022/04/06 10:49:09;;;;;;;9.65;2.47;;;;;;;;;;4898078;29;20067;-64
2022/04/06 10:51:56;;;;;;;11.68;2.92;;;;;;;;;;4897120;29;20029;-64
2022/04/06 10:54:23;;;;;;;9.13;2.58;;;;;;;;;;4897086;29;20460;-64
2022/04/06 10:56:59;;;;;;;20.38;2.90;;;;;;;;;;4897913;29;20492;-64
2022/04/06 10:59:29;;;;;;;11.73;3.33;;;;;;;;;;4898567;29;20563;-64
2022/04/06 11:02:14;;;;;;;11.30;2.65;;;;;;;;;;4897298;29;20075;-64
2022/04/06 11:04:40;;;;;;;8.27;2.03;;;;;;;;;;4897634;29;20048;-65
2022/04/06 11:07:08;;;;;;;10.70;2.30;;;;;;;;;;4896353;29;20032;-64
2022/04/06 11:12:21;;;;;;;9.13;2.33;;;;;;;;;;4896765;29;20540;-64
2022/04/06 11:15:07;;;;;;;10.48;2.05;;;;;;;;;;4897154;29;20017;-64
2022/04/06 11:17:34;;;;;;;7.18;1.80;;;;;;;;;;4883832;29;20041;-64
2022/04/06 11:20:06;;;;;;;12.32;2.00;;;;;;;;;;4896908;29;20066;-64
2022/04/06 11:22:32;;;;;;;7.53;1.85;;;;;;;;;;4909519;29;20188;-64
2022/04/06 11:24:59;;;;;;;15.18;2.08;;;;;;;;;;4915947;29;20496;-64
2022/04/06 11:27:35;;;;;;;7.55;1.77;;;;;;;;;;4916968;29;20040;-64
2022/04/06 11:30:05;;;;;;;11.23;2.10;;;;;;;;;;4916115;29;20044;-64
2022/04/06 11:32:33;;;;;;;7.28;1.88;;;;;;;;;;4916550;29;20088;-64
2022/04/06 11:35:00;;;;;;;6.47;2.00;;;;;;;;;;4915888;29;20030;-64
2022/04/06 11:37:26;;;;;;;10.20;2.17;;;;;;;;;;4915807;29;20119;-64
2022/04/06 11:40:04;;;;;;;11.05;2.22;;;;;;;;;;4917163;29;20028;-64
2022/04/06 11:42:30;;;;;;;11.30;1.90;;;;;;;;;;4916076;29;20035;-64
2022/04/06 11:44:56;;;;;;;11.25;2.10;;;;;;;;;;4917554;29;20032;-64
2022/04/06 11:47:30;;;;;;;13.70;2.08;;;;;;;;;;4915027;29;20122;-64
2022/04/06 11:49:56;;;;;;;11.02;2.13;;;;;;;;;;4915599;29;20040;-64
2022/04/06 11:52:22;;;;;;;8.15;2.53;;;;;;;;;;4917529;29;20038;-64
2022/04/06 11:55:10;;;;;;;8.18;2.17;;;;;;;;;;4915149;29;20080;-64
2022/04/06 11:57:38;;;;;;;9.60;2.10;;;;;;;;;;4915179;29;20040;-64
2022/04/06 12:00:11;;;;;;;12.93;2.63;;;;;;;;;;4912878;29;20107;-64
2022/04/06 12:02:53;;;;;;;13.05;2.50;;;;;;;;;;4911303;29;20036;-64
2022/04/06 12:05:20;;;;;;;12.75;3.25;;;;;;;;;;4915349;29;20047;-64
2022/04/06 12:07:47;;;;;;;15.60;2.80;;;;;;;;;;4910740;29;20051;-64
2022/04/06 12:10:13;;;;;;;16.75;3.80;;;;;;;;;;4917460;29;20159;-65
2022/04/06 12:12:40;;;;;;;15.85;2.97;;;;;;;;;;4929295;29;20758;-65
2022/04/06 12:15:06;;;;;;;11.85;3.28;;;;;;;;;;4914964;29;20043;-64
2022/04/06 12:17:33;;;;;;;18.45;2.97;;;;;;;;;;4914249;29;20175;-64
2022/04/06 12:20:00;;;;;;;20.75;5.28;;;;;;;;;;4912628;29;20036;-64
2022/04/06 12:22:27;;;;;;;16.13;2.55;;;;;;;;;;4913443;29;20087;-64
2022/04/06 12:24:53;;;;;;;12.02;3.13;;;;;;;;;;4914300;29;20047;-64
2022/04/06 12:27:38;;;;;;;17.00;3.30;;;;;;;;;;4912841;29;20608;-64
2022/04/06 12:30:08;;;;;;;20.25;3.47;;;;;;;;;;4911647;29;20032;-64
2022/04/06 12:32:41;;;;;;;15.65;4.35;;;;;;;;;;4912970;29;20141;-64
2022/04/06 12:35:17;;;;;;;19.40;3.65;;;;;;;;;;4911296;29;20047;-64
2022/04/06 12:37:44;;;;;;;12.18;3.35;;;;;;;;;;4912516;29;20012;-64
2022/04/06 12:40:10;;;;;;;15.20;2.80;;;;;;;;;;4909154;29;20024;-64
2022/04/06 12:42:37;;;;;;;13.98;3.33;;;;;;;;;;4913399;29;20091;-64
2022/04/06 12:45:06;;;;;;;10.90;2.90;;;;;;;;;;4914158;29;20538;-64
2022/04/06 12:47:32;;;;;;;19.88;3.45;;;;;;;;;;4915582;29;20032;-64
2022/04/06 12:50:11;;;;;;;17.08;3.58;;;;;;;;;;4914311;29;20452;-64
2022/04/06 12:52:37;;;;;;;14.70;4.35;;;;;;;;;;4915813;29;20468;-64
2022/04/06 12:55:03;;;;;;;9.57;2.63;;;;;;;;;;4913552;29;20496;-64
2022/04/06 12:57:31;;;;;;;13.73;3.53;;;;;;;;;;4912471;29;20069;-64
2022/04/06 13:00:16;;;;;;;14.50;3.47;;;;;;;;;;4913687;29;20494;-64
2022/04/06 13:02:46;;;;;;;23.17;5.93;;;;;;;;;;4927956;29;20447;-64
2022/04/06 13:05:13;;;;;;;14.77;3.33;;;;;;;;;;4915212;29;20036;-64
2022/04/06 13:07:43;;;;;;;15.57;3.25;;;;;;;;;;4914546;29;20519;-64
2022/04/06 13:10:13;;;;;;;7.55;2.75;;;;;;;;;;4912445;29;20063;-64
2022/04/06 13:12:43;;;;;;;17.67;2.40;;;;;;;;;;4912940;29;20102;-64
2022/04/06 13:15:10;;;;;;;14.77;2.63;;;;;;;;;;4911379;29;20100;-64
2022/04/06 13:17:36;;;;;;;12.48;2.70;;;;;;;;;;4912225;29;20400;-64
2022/04/06 13:20:06;;;;;;;10.85;2.80;;;;;;;;;;4913199;29;20036;-64
2022/04/06 13:22:34;;;;;;;9.88;2.95;;;;;;;;;;4911260;29;20078;-64
2022/04/06 13:25:00;;;;;;;17.58;3.28;;;;;;;;;;4912474;29;20174;-64
2022/04/06 13:27:26;;;;;;;18.38;3.30;;;;;;;;;;4898434;29;20063;-64
2022/04/06 13:29:52;;;;;;;19.25;2.95;;;;;;;;;;4915013;29;20079;-64
2022/04/06 13:32:18;;;;;;;20.05;2.90;;;;;;;;;;4915018;29;20119;-64
2022/04/06 13:34:44;;;;;;;22.02;4.20;;;;;;;;;;4913499;29;20111;-64
2022/04/06 13:37:11;;;;;;;15.73;3.47;;;;;;;;;;4914723;29;20115;-64
2022/04/06 13:39:37;;;;;;;21.27;5.38;;;;;;;;;;4915402;29;20028;-64
2022/04/06 13:42:05;;;;;;;12.70;3.00;;;;;;;;;;4919059;29;20389;-64
2022/04/06 13:44:32;;;;;;;9.88;2.95;;;;;;;;;;4917062;29;20036;-64
2022/04/06 13:46:59;;;;;;;15.40;2.80;;;;;;;;;;4917386;29;20023;-64
2022/04/06 13:49:25;;;;;;;13.15;2.60;;;;;;;;;;4916787;29;20040;-64
2022/04/06 13:51:54;;;;;;;15.68;2.50;;;;;;;;;;4914608;29;20036;-64
2022/04/06 13:54:21;;;;;;;11.68;2.38;;;;;;;;;;4915343;29;20078;-64
2022/04/06 13:56:47;;;;;;;9.02;2.03;;;;;;;;;;4915868;29;20043;-64
2022/04/06 13:59:14;;;;;;;13.77;2.13;;;;;;;;;;4916207;29;20039;-64
2022/04/06 14:01:40;;;;;;;7.05;2.65;;;;;;;;;;4916590;29;20032;-64
2022/04/06 14:04:07;;;;;;;5.13;1.75;;;;;;;;;;4914780;29;20036;-64
2022/04/06 14:06:33;;;;;;;7.28;2.10;;;;;;;;;;4914069;29;20064;-64
2022/04/06 14:08:59;;;;;;;10.95;1.95;;;;;;;;;;4912330;29;20072;-67
2022/04/06 14:11:26;;;;;;;14.02;2.03;;;;;;;;;;4915881;29;20507;-69
2022/04/06 14:13:52;;;;;;;9.23;2.28;;;;;;;;;;4915961;29;20016;-70
2022/04/06 14:16:19;;;;;;;16.52;3.20;;;;;;;;;;4919576;29;20024;-62
2022/04/06 14:18:45;;;;;;;9.18;2.35;;;;;;;;;;4912502;29;20038;-65
2022/04/06 14:21:12;;;;;;;13.10;1.88;;;;;;;;;;4912847;29;20047;-63
2022/04/06 14:23:40;;;;;;;12.57;1.73;;;;;;;;;;4913656;29;20032;-70
2022/04/06 14:26:07;;;;;;;10.02;2.00;;;;;;;;;;4911387;29;20039;-74
2022/04/06 14:28:34;;;;;;;12.00;1.90;;;;;;;;;;4911999;29;20079;-64
2022/04/06 14:31:00;;;;;;;7.18;2.05;;;;;;;;;;4916475;29;20146;-70
2022/04/06 14:33:27;;;;;;;13.85;2.78;;;;;;;;;;4913310;29;20119;-65
2022/04/06 14:35:53;;;;;;;14.98;2.08;;;;;;;;;;4913440;29;20040;-65
2022/04/06 14:38:20;;;;;;;7.60;2.03;;;;;;;;;;4912626;29;20035;-63
2022/04/06 14:40:49;;;;;;;7.53;1.40;;;;;;;;;;4912340;29;20051;-65
2022/04/06 14:43:19;;;;;;;11.98;1.77;;;;;;;;;;4912258;29;20393;-64
2022/04/06 14:45:45;;;;;;;7.32;1.40;;;;;;;;;;4915073;29;20518;-68
2022/04/06 14:48:11;;;;;;;3.88;1.25;;;;;;;;;;4913434;29;20028;-63
2022/04/06 14:50:40;;;;;;;7.18;1.63;;;;;;;;;;4913984;29;20040;-66
2022/04/06 14:53:07;;;;;;;18.88;2.13;;;;;;;;;;4913350;29;20508;-62